sensor_id;sensor_type;location;lat;lon;timestamp;P1;durP1;ratioP1;P2;durP2;ratioP2
11982;SDS011;72623;51.184;7.176;2024-03-23T00:52:20;11.03;;;3.70;;
11982;SDS011;72623;51.184;7.176;2024-03-23T00:54:47;11.60;;;4.37;;
11982;SDS011;72623;51.184;7.176;2024-03-23T00:57:13;9.83;;;3.90;;
11982;SDS011;72623;51.184;7.176;2024-03-23T00:59:39;8.00;;;3.30;;
11982;SDS011;72623;51.184;7.176;2024-03-23T01:02:05;8.70;;;3.43;;
11982;SDS011;72623;51.184;7.176;2024-03-23T01:04:32;8.23;;;3.67;;
11982;SDS011;72623;51.184;7.176;2024-03-23T01:06:58;8.27;;;4.17;;
11982;SDS011;72623;51.184;7.176;2024-03-23T01:09:24;5.87;;;3.33;;
11982;SDS011;72623;51.184;7.176;2024-03-23T01:11:50;8.83;;;3.57;;
11982;SDS011;72623;51.184;7.176;2024-03-23T01:14:17;8.30;;;3.73;;
11982;SDS011;72623;51.184;7.176;2024-03-23T01:16:42;4.97;;;2.80;;
11982;SDS011;72623;51.184;7.176;2024-03-23T01:19:11;8.03;;;3.13;;
11982;SDS011;72623;51.184;7.176;2024-03-23T01:21:36;6.60;;;3.10;;
11982;SDS011;72623;51.184;7.176;2024-03-23T01:24:03;11.23;;;2.83;;
11982;SDS011;72623;51.184;7.176;2024-03-23T01:26:29;5.30;;;2.47;;
11982;SDS011;72623;51.184;7.176;2024-03-23T01:28:56;8.97;;;2.77;;
11982;SDS011;72623;51.184;7.176;2024-03-23T01:31:21;6.80;;;2.27;;
11982;SDS011;72623;51.184;7.176;2024-03-23T01:33:48;11.10;;;2.40;;
11982;SDS011;72623;51.184;7.176;2024-03-23T01:36:14;7.23;;;2.40;;
11982;SDS011;72623;51.184;7.176;2024-03-23T01:38:40;7.93;;;2.10;;
11982;SDS011;72623;51.184;7.176;2024-03-23T01:41:06;3.43;;;1.57;;
11982;SDS011;72623;51.184;7.176;2024-03-23T01:43:33;4.17;;;2.13;;
11982;SDS011;72623;51.184;7.176;2024-03-23T01:46:04;5.70;;;2.23;;
11982;SDS011;72623;51.184;7.176;2024-03-23T01:48:31;5.73;;;1.83;;
11982;SDS011;72623;51.184;7.176;2024-03-23T01:50:57;6.93;;;2.47;;
11982;SDS011;72623;51.184;7.176;2024-03-23T01:53:24;8.70;;;2.50;;
11982;SDS011;72623;51.184;7.176;2024-03-23T01:55:50;5.60;;;2.10;;
11982;SDS011;72623;51.184;7.176;2024-03-23T01:58:17;5.10;;;2.47;;
11982;SDS011;72623;51.184;7.176;2024-03-23T02:00:43;10.13;;;2.97;;
11982;SDS011;72623;51.184;7.176;2024-03-23T02:03:22;5.20;;;2.60;;
11982;SDS011;72623;51.184;7.176;2024-03-23T02:05:49;9.70;;;2.87;;
11982;SDS011;72623;51.184;7.176;2024-03-23T02:08:22;6.73;;;2.60;;
11982;SDS011;72623;51.184;7.176;2024-03-23T02:10:49;7.50;;;2.43;;
11982;SDS011;72623;51.184;7.176;2024-03-23T02:13:17;8.33;;;2.67;;
11982;SDS011;72623;51.184;7.176;2024-03-23T02:15:43;9.73;;;2.63;;
11982;SDS011;72623;51.184;7.176;2024-03-23T02:18:10;6.17;;;1.87;;
11982;SDS011;72623;51.184;7.176;2024-03-23T02:20:37;5.53;;;2.00;;
11982;SDS011;72623;51.184;7.176;2024-03-23T02:23:04;9.27;;;2.53;;
11982;SDS011;72623;51.184;7.176;2024-03-23T02:25:31;5.10;;;2.53;;
11982;SDS011;72623;51.184;7.176;2024-03-23T02:28:00;7.13;;;2.57;;
11982;SDS011;72623;51.184;7.176;2024-03-23T02:30:26;6.53;;;2.47;;
11982;SDS011;72623;51.184;7.176;2024-03-23T02:32:53;6.60;;;2.33;;
11982;SDS011;72623;51.184;7.176;2024-03-23T02:35:19;4.13;;;1.87;;
11982;SDS011;72623;51.184;7.176;2024-03-23T02:37:46;6.00;;;2.03;;
11982;SDS011;72623;51.184;7.176;2024-03-23T02:40:12;5.80;;;2.30;;
11982;SDS011;72623;51.184;7.176;2024-03-23T02:42:39;9.67;;;1.90;;
11982;SDS011;72623;51.184;7.176;2024-03-23T02:45:04;4.90;;;1.90;;
11982;SDS011;72623;51.184;7.176;2024-03-23T02:47:32;6.53;;;1.77;;
11982;SDS011;72623;51.184;7.176;2024-03-23T02:49:57;4.23;;;1.50;;
11982;SDS011;72623;51.184;7.176;2024-03-23T02:52:24;4.93;;;1.80;;
11982;SDS011;72623;51.184;7.176;2024-03-23T02:54:50;11.57;;;1.80;;
11982;SDS011;72623;51.184;7.176;2024-03-23T02:57:17;4.60;;;1.57;;
11982;SDS011;72623;51.184;7.176;2024-03-23T02:59:43;5.57;;;1.47;;
11982;SDS011;72623;51.184;7.176;2024-03-23T03:02:09;5.73;;;1.30;;
11982;SDS011;72623;51.184;7.176;2024-03-23T03:04:36;5.50;;;1.40;;
11982;SDS011;72623;51.184;7.176;2024-03-23T03:07:03;5.97;;;1.30;;
11982;SDS011;72623;51.184;7.176;2024-03-23T03:09:29;3.30;;;1.90;;
11982;SDS011;72623;51.184;7.176;2024-03-23T03:11:55;8.03;;;1.27;;
11982;SDS011;72623;51.184;7.176;2024-03-23T03:14:21;4.60;;;1.50;;
11982;SDS011;72623;51.184;7.176;2024-03-23T03:16:48;4.33;;;1.70;;
11982;SDS011;72623;51.184;7.176;2024-03-23T03:19:13;3.30;;;1.43;;
11982;SDS011;72623;51.184;7.176;2024-03-23T03:21:41;3.87;;;1.77;;
11982;SDS011;72623;51.184;7.176;2024-03-23T03:24:07;6.07;;;1.53;;
11982;SDS011;72623;51.184;7.176;2024-03-23T03:26:34;7.80;;;1.23;;
11982;SDS011;72623;51.184;7.176;2024-03-23T03:28:59;4.70;;;1.97;;
11982;SDS011;72623;51.184;7.176;2024-03-23T03:31:26;8.17;;;1.40;;
11982;SDS011;72623;51.184;7.176;2024-03-23T03:33:52;4.20;;;1.40;;
11982;SDS011;72623;51.184;7.176;2024-03-23T03:36:19;5.40;;;1.23;;
11982;SDS011;72623;51.184;7.176;2024-03-23T03:38:45;2.03;;;1.07;;
11982;SDS011;72623;51.184;7.176;2024-03-23T03:41:11;3.00;;;1.30;;
11982;SDS011;72623;51.184;7.176;2024-03-23T03:43:37;3.33;;;1.07;;
11982;SDS011;72623;51.184;7.176;2024-03-23T03:46:04;3.20;;;1.33;;
11982;SDS011;72623;51.184;7.176;2024-03-23T03:48:29;2.43;;;1.37;;
11982;SDS011;72623;51.184;7.176;2024-03-23T03:50:56;7.33;;;1.30;;
11982;SDS011;72623;51.184;7.176;2024-03-23T03:53:22;6.40;;;1.27;;
11982;SDS011;72623;51.184;7.176;2024-03-23T03:55:49;2.67;;;1.20;;
11982;SDS011;72623;51.184;7.176;2024-03-23T03:58:14;6.13;;;1.43;;
11982;SDS011;72623;51.184;7.176;2024-03-23T04:00:41;3.13;;;1.30;;
11982;SDS011;72623;51.184;7.176;2024-03-23T04:03:07;4.70;;;1.50;;
11982;SDS011;72623;51.184;7.176;2024-03-23T04:05:33;3.57;;;1.33;;
11982;SDS011;72623;51.184;7.176;2024-03-23T04:07:59;4.30;;;1.37;;
11982;SDS011;72623;51.184;7.176;2024-03-23T04:10:26;4.13;;;1.33;;
11982;SDS011;72623;51.184;7.176;2024-03-23T04:12:51;8.30;;;1.97;;
11982;SDS011;72623;51.184;7.176;2024-03-23T04:15:19;5.27;;;1.50;;
11982;SDS011;72623;51.184;7.176;2024-03-23T04:17:45;8.77;;;1.10;;
11982;SDS011;72623;51.184;7.176;2024-03-23T04:20:12;6.50;;;1.80;;
11982;SDS011;72623;51.184;7.176;2024-03-23T04:22:41;7.17;;;1.70;;
11982;SDS011;72623;51.184;7.176;2024-03-23T04:25:08;9.40;;;1.53;;
11982;SDS011;72623;51.184;7.176;2024-03-23T04:27:38;6.30;;;1.53;;
11982;SDS011;72623;51.184;7.176;2024-03-23T04:30:06;12.13;;;2.07;;
11982;SDS011;72623;51.184;7.176;2024-03-23T04:32:44;5.23;;;1.67;;
11982;SDS011;72623;51.184;7.176;2024-03-23T04:35:30;7.50;;;2.20;;
11982;SDS011;72623;51.184;7.176;2024-03-23T04:37:56;10.33;;;2.53;;
11982;SDS011;72623;51.184;7.176;2024-03-23T04:40:26;5.77;;;1.70;;
11982;SDS011;72623;51.184;7.176;2024-03-23T04:42:59;7.67;;;2.17;;
11982;SDS011;72623;51.184;7.176;2024-03-23T04:45:26;3.70;;;1.83;;
11982;SDS011;72623;51.184;7.176;2024-03-23T04:47:55;4.63;;;2.07;;
11982;SDS011;72623;51.184;7.176;2024-03-23T04:50:22;6.27;;;2.00;;
11982;SDS011;72623;51.184;7.176;2024-03-23T04:52:49;9.23;;;3.00;;
11982;SDS011;72623;51.184;7.176;2024-03-23T04:55:16;13.70;;;2.60;;
11982;SDS011;72623;51.184;7.176;2024-03-23T04:57:42;7.03;;;2.90;;
11982;SDS011;72623;51.184;7.176;2024-03-23T05:00:12;5.63;;;2.20;;
11982;SDS011;72623;51.184;7.176;2024-03-23T05:02:42;10.90;;;2.50;;
11982;SDS011;72623;51.184;7.176;2024-03-23T05:05:10;8.77;;;2.17;;
11982;SDS011;72623;51.184;7.176;2024-03-23T05:07:36;5.93;;;2.50;;
11982;SDS011;72623;51.184;7.176;2024-03-23T05:12:36;9.50;;;2.80;;
11982;SDS011;72623;51.184;7.176;2024-03-23T05:15:06;9.80;;;2.53;;
11982;SDS011;72623;51.184;7.176;2024-03-23T05:17:32;7.20;;;2.90;;
11982;SDS011;72623;51.184;7.176;2024-03-23T05:20:00;6.00;;;2.40;;
11982;SDS011;72623;51.184;7.176;2024-03-23T05:22:25;9.60;;;2.57;;
11982;SDS011;72623;51.184;7.176;2024-03-23T05:24:53;9.80;;;2.90;;
11982;SDS011;72623;51.184;7.176;2024-03-23T05:27:18;9.70;;;2.97;;
11982;SDS011;72623;51.184;7.176;2024-03-23T05:29:45;12.23;;;3.20;;
11982;SDS011;72623;51.184;7.176;2024-03-23T05:32:12;9.90;;;3.33;;
11982;SDS011;72623;51.184;7.176;2024-03-23T05:34:39;12.77;;;3.67;;
11982;SDS011;72623;51.184;7.176;2024-03-23T05:37:04;15.70;;;3.57;;
11982;SDS011;72623;51.184;7.176;2024-03-23T05:39:31;12.50;;;4.03;;
11982;SDS011;72623;51.184;7.176;2024-03-23T05:41:57;10.80;;;3.73;;
11982;SDS011;72623;51.184;7.176;2024-03-23T05:44:24;6.40;;;3.40;;
11982;SDS011;72623;51.184;7.176;2024-03-23T05:46:49;12.57;;;3.30;;
11982;SDS011;72623;51.184;7.176;2024-03-23T05:49:16;7.40;;;3.40;;
11982;SDS011;72623;51.184;7.176;2024-03-23T05:51:42;6.60;;;3.47;;
11982;SDS011;72623;51.184;7.176;2024-03-23T05:54:21;10.73;;;3.60;;
11982;SDS011;72623;51.184;7.176;2024-03-23T05:56:46;5.93;;;3.03;;
11982;SDS011;72623;51.184;7.176;2024-03-23T05:59:13;6.27;;;2.83;;
11982;SDS011;72623;51.184;7.176;2024-03-23T06:01:47;7.97;;;3.23;;
11982;SDS011;72623;51.184;7.176;2024-03-23T06:04:14;10.33;;;2.93;;
11982;SDS011;72623;51.184;7.176;2024-03-23T06:06:39;7.43;;;2.80;;
11982;SDS011;72623;51.184;7.176;2024-03-23T06:09:07;4.20;;;2.37;;
11982;SDS011;72623;51.184;7.176;2024-03-23T06:11:33;8.53;;;3.13;;
11982;SDS011;72623;51.184;7.176;2024-03-23T06:14:00;8.30;;;2.90;;
11982;SDS011;72623;51.184;7.176;2024-03-23T06:16:26;7.70;;;2.80;;
11982;SDS011;72623;51.184;7.176;2024-03-23T06:18:53;9.07;;;3.20;;
11982;SDS011;72623;51.184;7.176;2024-03-23T06:21:19;6.43;;;2.73;;
11982;SDS011;72623;51.184;7.176;2024-03-23T06:23:50;10.80;;;2.97;;
11982;SDS011;72623;51.184;7.176;2024-03-23T06:26:18;7.10;;;2.73;;
11982;SDS011;72623;51.184;7.176;2024-03-23T06:28:46;8.90;;;2.57;;
11982;SDS011;72623;51.184;7.176;2024-03-23T06:31:19;7.53;;;2.90;;
11982;SDS011;72623;51.184;7.176;2024-03-23T06:33:45;6.70;;;2.73;;
11982;SDS011;72623;51.184;7.176;2024-03-23T06:36:11;4.80;;;2.30;;
11982;SDS011;72623;51.184;7.176;2024-03-23T06:38:38;4.43;;;2.40;;
11982;SDS011;72623;51.184;7.176;2024-03-23T06:41:04;6.47;;;2.17;;
11982;SDS011;72623;51.184;7.176;2024-03-23T06:43:31;9.30;;;2.70;;
11982;SDS011;72623;51.184;7.176;2024-03-23T06:45:57;7.80;;;2.87;;
11982;SDS011;72623;51.184;7.176;2024-03-23T06:48:24;8.07;;;3.40;;
11982;SDS011;72623;51.184;7.176;2024-03-23T06:50:54;7.17;;;2.80;;
11982;SDS011;72623;51.184;7.176;2024-03-23T06:53:22;5.73;;;2.60;;
11982;SDS011;72623;51.184;7.176;2024-03-23T06:55:52;8.60;;;3.53;;
11982;SDS011;72623;51.184;7.176;2024-03-23T06:58:20;13.77;;;4.07;;
11982;SDS011;72623;51.184;7.176;2024-03-23T07:00:47;7.07;;;3.03;;
11982;SDS011;72623;51.184;7.176;2024-03-23T07:03:14;13.67;;;4.00;;
11982;SDS011;72623;51.184;7.176;2024-03-23T07:05:41;10.93;;;4.20;;
11982;SDS011;72623;51.184;7.176;2024-03-23T07:08:08;9.27;;;3.30;;
11982;SDS011;72623;51.184;7.176;2024-03-23T07:13:11;12.30;;;4.67;;
11982;SDS011;72623;51.184;7.176;2024-03-23T07:15:37;13.10;;;4.93;;
11982;SDS011;72623;51.184;7.176;2024-03-23T07:18:03;10.43;;;5.47;;
11982;SDS011;72623;51.184;7.176;2024-03-23T07:20:29;16.73;;;4.97;;
11982;SDS011;72623;51.184;7.176;2024-03-23T07:22:56;9.03;;;4.90;;
11982;SDS011;72623;51.184;7.176;2024-03-23T07:25:22;9.40;;;4.70;;
11982;SDS011;72623;51.184;7.176;2024-03-23T07:27:50;8.90;;;4.93;;
11982;SDS011;72623;51.184;7.176;2024-03-23T07:30:16;14.20;;;5.17;;
11982;SDS011;72623;51.184;7.176;2024-03-23T07:32:44;10.50;;;4.63;;
11982;SDS011;72623;51.184;7.176;2024-03-23T07:35:10;16.57;;;5.10;;
11982;SDS011;72623;51.184;7.176;2024-03-23T07:37:36;9.93;;;4.83;;
11982;SDS011;72623;51.184;7.176;2024-03-23T07:40:02;9.93;;;4.77;;
11982;SDS011;72623;51.184;7.176;2024-03-23T07:42:29;10.27;;;4.67;;
11982;SDS011;72623;51.184;7.176;2024-03-23T07:44:55;17.17;;;5.43;;
11982;SDS011;72623;51.184;7.176;2024-03-23T07:47:22;11.80;;;5.47;;
11982;SDS011;72623;51.184;7.176;2024-03-23T07:49:47;11.77;;;6.23;;
11982;SDS011;72623;51.184;7.176;2024-03-23T07:52:14;8.80;;;4.57;;
11982;SDS011;72623;51.184;7.176;2024-03-23T07:54:40;15.33;;;5.53;;
11982;SDS011;72623;51.184;7.176;2024-03-23T07:57:12;12.77;;;4.83;;
11982;SDS011;72623;51.184;7.176;2024-03-23T07:59:38;11.80;;;5.37;;
11982;SDS011;72623;51.184;7.176;2024-03-23T08:02:05;12.77;;;4.90;;
11982;SDS011;72623;51.184;7.176;2024-03-23T08:04:33;13.83;;;4.93;;
11982;SDS011;72623;51.184;7.176;2024-03-23T08:07:03;15.30;;;6.17;;
11982;SDS011;72623;51.184;7.176;2024-03-23T08:09:29;9.93;;;5.30;;
11982;SDS011;72623;51.184;7.176;2024-03-23T08:11:56;17.77;;;5.43;;
11982;SDS011;72623;51.184;7.176;2024-03-23T08:14:24;15.60;;;5.33;;
11982;SDS011;72623;51.184;7.176;2024-03-23T08:16:52;9.97;;;4.40;;
11982;SDS011;72623;51.184;7.176;2024-03-23T08:19:19;14.37;;;4.80;;
11982;SDS011;72623;51.184;7.176;2024-03-23T08:21:46;14.30;;;4.93;;
11982;SDS011;72623;51.184;7.176;2024-03-23T08:24:12;7.23;;;4.10;;
11982;SDS011;72623;51.184;7.176;2024-03-23T08:26:39;13.10;;;4.57;;
11982;SDS011;72623;51.184;7.176;2024-03-23T08:29:07;10.77;;;4.80;;
11982;SDS011;72623;51.184;7.176;2024-03-23T08:31:35;10.37;;;5.13;;
11982;SDS011;72623;51.184;7.176;2024-03-23T08:34:01;13.90;;;4.77;;
11982;SDS011;72623;51.184;7.176;2024-03-23T08:36:27;8.27;;;4.43;;
11982;SDS011;72623;51.184;7.176;2024-03-23T08:38:54;16.60;;;4.13;;
11982;SDS011;72623;51.184;7.176;2024-03-23T08:41:20;13.77;;;4.70;;
11982;SDS011;72623;51.184;7.176;2024-03-23T08:43:46;14.80;;;4.80;;
11982;SDS011;72623;51.184;7.176;2024-03-23T08:46:14;14.63;;;3.87;;
11982;SDS011;72623;51.184;7.176;2024-03-23T08:48:41;11.07;;;4.10;;
11982;SDS011;72623;51.184;7.176;2024-03-23T08:51:10;11.23;;;4.30;;
11982;SDS011;72623;51.184;7.176;2024-03-23T08:53:41;12.07;;;3.43;;
11982;SDS011;72623;51.184;7.176;2024-03-23T08:56:08;9.23;;;3.83;;
11982;SDS011;72623;51.184;7.176;2024-03-23T08:58:38;9.00;;;3.33;;
11982;SDS011;72623;51.184;7.176;2024-03-23T09:01:08;8.00;;;3.50;;
11982;SDS011;72623;51.184;7.176;2024-03-23T09:03:36;10.60;;;4.07;;
11982;SDS011;72623;51.184;7.176;2024-03-23T09:06:02;11.57;;;3.77;;
11982;SDS011;72623;51.184;7.176;2024-03-23T09:08:36;18.23;;;4.20;;
11982;SDS011;72623;51.184;7.176;2024-03-23T09:11:06;9.07;;;3.33;;
11982;SDS011;72623;51.184;7.176;2024-03-23T09:13:34;6.37;;;3.03;;
11982;SDS011;72623;51.184;7.176;2024-03-23T09:16:01;8.50;;;3.13;;
11982;SDS011;72623;51.184;7.176;2024-03-23T09:18:31;7.40;;;3.10;;
11982;SDS011;72623;51.184;7.176;2024-03-23T09:21:00;9.23;;;2.83;;
11982;SDS011;72623;51.184;7.176;2024-03-23T09:23:36;10.57;;;2.47;;
11982;SDS011;72623;51.184;7.176;2024-03-23T09:26:11;11.50;;;2.40;;
11982;SDS011;72623;51.184;7.176;2024-03-23T09:28:40;9.70;;;2.53;;
11982;SDS011;72623;51.184;7.176;2024-03-23T09:31:07;6.50;;;1.70;;
11982;SDS011;72623;51.184;7.176;2024-03-23T09:33:35;5.63;;;1.80;;
11982;SDS011;72623;51.184;7.176;2024-03-23T09:36:04;11.60;;;1.77;;
11982;SDS011;72623;51.184;7.176;2024-03-23T09:38:31;6.03;;;1.37;;
11982;SDS011;72623;51.184;7.176;2024-03-23T09:40:58;6.07;;;2.20;;
11982;SDS011;72623;51.184;7.176;2024-03-23T09:43:25;10.03;;;3.13;;
11982;SDS011;72623;51.184;7.176;2024-03-23T09:45:51;12.63;;;3.10;;
11982;SDS011;72623;51.184;7.176;2024-03-23T09:48:22;6.20;;;2.43;;
11982;SDS011;72623;51.184;7.176;2024-03-23T09:50:47;10.17;;;2.60;;
11982;SDS011;72623;51.184;7.176;2024-03-23T09:53:29;7.40;;;2.37;;
11982;SDS011;72623;51.184;7.176;2024-03-23T09:55:54;5.47;;;2.60;;
11982;SDS011;72623;51.184;7.176;2024-03-23T09:58:23;9.20;;;2.80;;
11982;SDS011;72623;51.184;7.176;2024-03-23T10:00:49;9.20;;;2.63;;
11982;SDS011;72623;51.184;7.176;2024-03-23T10:03:16;7.20;;;2.63;;
11982;SDS011;72623;51.184;7.176;2024-03-23T10:05:41;3.97;;;2.27;;
11982;SDS011;72623;51.184;7.176;2024-03-23T10:10:40;11.17;;;2.73;;
11982;SDS011;72623;51.184;7.176;2024-03-23T10:13:10;4.67;;;2.17;;
11982;SDS011;72623;51.184;7.176;2024-03-23T10:15:57;5.30;;;1.90;;
11982;SDS011;72623;51.184;7.176;2024-03-23T10:18:29;3.97;;;2.10;;
11982;SDS011;72623;51.184;7.176;2024-03-23T10:21:07;4.30;;;1.93;;
11982;SDS011;72623;51.184;7.176;2024-03-23T10:23:36;6.10;;;2.47;;
11982;SDS011;72623;51.184;7.176;2024-03-23T10:26:12;4.83;;;2.40;;
11982;SDS011;72623;51.184;7.176;2024-03-23T10:28:54;6.00;;;2.47;;
11982;SDS011;72623;51.184;7.176;2024-03-23T10:31:20;5.93;;;2.33;;
11982;SDS011;72623;51.184;7.176;2024-03-23T10:33:47;4.30;;;2.10;;
11982;SDS011;72623;51.184;7.176;2024-03-23T10:36:14;7.20;;;2.47;;
11982;SDS011;72623;51.184;7.176;2024-03-23T10:38:42;4.20;;;2.17;;
11982;SDS011;72623;51.184;7.176;2024-03-23T10:41:09;7.00;;;2.87;;
11982;SDS011;72623;51.184;7.176;2024-03-23T10:43:39;6.40;;;2.30;;
11982;SDS011;72623;51.184;7.176;2024-03-23T10:46:07;6.20;;;2.47;;
11982;SDS011;72623;51.184;7.176;2024-03-23T10:48:36;6.47;;;2.00;;
11982;SDS011;72623;51.184;7.176;2024-03-23T10:51:03;7.87;;;2.23;;
11982;SDS011;72623;51.184;7.176;2024-03-23T10:53:34;5.10;;;2.20;;
11982;SDS011;72623;51.184;7.176;2024-03-23T10:56:02;7.27;;;2.07;;
11982;SDS011;72623;51.184;7.176;2024-03-23T10:58:31;7.97;;;1.93;;
11982;SDS011;72623;51.184;7.176;2024-03-23T11:01:06;6.43;;;1.80;;
11982;SDS011;72623;51.184;7.176;2024-03-23T11:03:36;4.50;;;1.33;;
11982;SDS011;72623;51.184;7.176;2024-03-23T11:06:04;4.67;;;1.00;;
11982;SDS011;72623;51.184;7.176;2024-03-23T11:11:19;2.03;;;0.87;;
11982;SDS011;72623;51.184;7.176;2024-03-23T11:13:52;2.37;;;1.00;;
11982;SDS011;72623;51.184;7.176;2024-03-23T11:16:25;1.20;;;0.90;;
11982;SDS011;72623;51.184;7.176;2024-03-23T11:18:55;1.33;;;0.83;;
11982;SDS011;72623;51.184;7.176;2024-03-23T11:21:59;2.63;;;0.70;;
11982;SDS011;72623;51.184;7.176;2024-03-23T11:24:26;2.40;;;0.87;;
11982;SDS011;72623;51.184;7.176;2024-03-23T11:26:51;1.33;;;0.73;;
11982;SDS011;72623;51.184;7.176;2024-03-23T11:29:18;3.30;;;0.73;;
11982;SDS011;72623;51.184;7.176;2024-03-23T11:31:47;2.87;;;1.17;;
11982;SDS011;72623;51.184;7.176;2024-03-23T11:34:19;4.53;;;1.10;;
11982;SDS011;72623;51.184;7.176;2024-03-23T11:36:45;1.57;;;0.87;;
11982;SDS011;72623;51.184;7.176;2024-03-23T11:39:16;1.20;;;0.90;;
11982;SDS011;72623;51.184;7.176;2024-03-23T11:41:50;1.90;;;0.80;;
11982;SDS011;72623;51.184;7.176;2024-03-23T11:44:21;3.60;;;0.97;;
11982;SDS011;72623;51.184;7.176;2024-03-23T11:46:48;3.07;;;0.90;;
11982;SDS011;72623;51.184;7.176;2024-03-23T11:49:23;1.90;;;0.70;;
11982;SDS011;72623;51.184;7.176;2024-03-23T11:51:50;0.90;;;0.73;;
11982;SDS011;72623;51.184;7.176;2024-03-23T11:54:25;0.87;;;0.67;;
11982;SDS011;72623;51.184;7.176;2024-03-23T11:56:58;2.73;;;1.00;;
11982;SDS011;72623;51.184;7.176;2024-03-23T12:02:09;1.60;;;0.87;;
11982;SDS011;72623;51.184;7.176;2024-03-23T12:04:39;2.40;;;1.07;;
11982;SDS011;72623;51.184;7.176;2024-03-23T12:07:24;4.83;;;1.20;;
11982;SDS011;72623;51.184;7.176;2024-03-23T12:10:03;2.37;;;1.00;;
11982;SDS011;72623;51.184;7.176;2024-03-23T12:12:29;4.60;;;1.50;;
11982;SDS011;72623;51.184;7.176;2024-03-23T12:17:28;3.20;;;1.10;;
11982;SDS011;72623;51.184;7.176;2024-03-23T12:19:54;2.20;;;1.33;;
11982;SDS011;72623;51.184;7.176;2024-03-23T12:22:20;4.17;;;1.60;;
11982;SDS011;72623;51.184;7.176;2024-03-23T12:24:48;2.27;;;0.87;;
11982;SDS011;72623;51.184;7.176;2024-03-23T12:27:14;3.33;;;0.97;;
11982;SDS011;72623;51.184;7.176;2024-03-23T12:29:41;3.23;;;0.70;;
11982;SDS011;72623;51.184;7.176;2024-03-23T12:32:08;2.80;;;0.80;;
11982;SDS011;72623;51.184;7.176;2024-03-23T12:34:35;2.87;;;0.97;;
11982;SDS011;72623;51.184;7.176;2024-03-23T12:37:03;1.00;;;0.60;;
11982;SDS011;72623;51.184;7.176;2024-03-23T12:39:29;1.57;;;0.90;;
11982;SDS011;72623;51.184;7.176;2024-03-23T12:41:56;1.43;;;0.77;;
11982;SDS011;72623;51.184;7.176;2024-03-23T12:44:21;0.70;;;0.70;;
11982;SDS011;72623;51.184;7.176;2024-03-23T12:46:48;1.67;;;0.90;;
11982;SDS011;72623;51.184;7.176;2024-03-23T12:49:14;1.10;;;0.90;;
11982;SDS011;72623;51.184;7.176;2024-03-23T12:51:46;2.87;;;0.83;;
11982;SDS011;72623;51.184;7.176;2024-03-23T12:54:18;4.90;;;0.70;;
11982;SDS011;72623;51.184;7.176;2024-03-23T12:56:45;1.07;;;0.90;;
11982;SDS011;72623;51.184;7.176;2024-03-23T12:59:11;4.37;;;1.17;;
11982;SDS011;72623;51.184;7.176;2024-03-23T13:01:38;2.50;;;1.20;;
11982;SDS011;72623;51.184;7.176;2024-03-23T13:04:05;5.57;;;1.00;;
11982;SDS011;72623;51.184;7.176;2024-03-23T13:06:32;3.23;;;1.10;;
11982;SDS011;72623;51.184;7.176;2024-03-23T13:08:59;2.93;;;0.80;;
11982;SDS011;72623;51.184;7.176;2024-03-23T13:11:28;0.87;;;0.80;;
11982;SDS011;72623;51.184;7.176;2024-03-23T13:13:54;2.03;;;0.87;;
11982;SDS011;72623;51.184;7.176;2024-03-23T13:16:21;1.73;;;0.60;;
11982;SDS011;72623;51.184;7.176;2024-03-23T13:18:47;2.90;;;0.80;;
11982;SDS011;72623;51.184;7.176;2024-03-23T13:21:14;2.03;;;1.10;;
11982;SDS011;72623;51.184;7.176;2024-03-23T13:23:40;5.20;;;1.00;;
11982;SDS011;72623;51.184;7.176;2024-03-23T13:26:14;8.33;;;1.30;;
11982;SDS011;72623;51.184;7.176;2024-03-23T13:32:06;2.03;;;1.10;;
11982;SDS011;72623;51.184;7.176;2024-03-23T13:38:10;3.13;;;1.00;;
11982;SDS011;72623;51.184;7.176;2024-03-23T13:40:37;3.60;;;1.10;;
11982;SDS011;72623;51.184;7.176;2024-03-23T13:43:03;1.63;;;1.10;;
11982;SDS011;72623;51.184;7.176;2024-03-23T13:48:52;0.87;;;0.60;;
11982;SDS011;72623;51.184;7.176;2024-03-23T13:51:25;0.80;;;0.40;;
11982;SDS011;72623;51.184;7.176;2024-03-23T13:54:00;1.27;;;0.50;;
11982;SDS011;72623;51.184;7.176;2024-03-23T13:56:41;1.27;;;0.57;;
11982;SDS011;72623;51.184;7.176;2024-03-23T13:59:06;2.67;;;0.70;;
11982;SDS011;72623;51.184;7.176;2024-03-23T14:05:15;0.77;;;0.50;;
11982;SDS011;72623;51.184;7.176;2024-03-23T14:07:41;3.47;;;0.80;;
11982;SDS011;72623;51.184;7.176;2024-03-23T14:10:08;4.97;;;1.00;;
11982;SDS011;72623;51.184;7.176;2024-03-23T14:12:35;1.97;;;0.90;;
11982;SDS011;72623;51.184;7.176;2024-03-23T14:15:15;2.10;;;1.13;;
11982;SDS011;72623;51.184;7.176;2024-03-23T14:17:47;1.13;;;0.80;;
11982;SDS011;72623;51.184;7.176;2024-03-23T14:20:44;2.93;;;1.20;;
11982;SDS011;72623;51.184;7.176;2024-03-23T14:23:28;2.27;;;1.00;;
11982;SDS011;72623;51.184;7.176;2024-03-23T14:26:19;2.20;;;1.07;;
11982;SDS011;72623;51.184;7.176;2024-03-23T14:28:55;2.23;;;1.00;;
11982;SDS011;72623;51.184;7.176;2024-03-23T14:31:20;3.13;;;1.10;;
11982;SDS011;72623;51.184;7.176;2024-03-23T14:33:48;4.83;;;1.10;;
11982;SDS011;72623;51.184;7.176;2024-03-23T14:36:15;2.07;;;1.10;;
11982;SDS011;72623;51.184;7.176;2024-03-23T14:38:42;1.57;;;0.80;;
11982;SDS011;72623;51.184;7.176;2024-03-23T14:41:19;5.43;;;0.90;;
11982;SDS011;72623;51.184;7.176;2024-03-23T14:43:46;3.83;;;1.10;;
11982;SDS011;72623;51.184;7.176;2024-03-23T14:46:14;2.00;;;1.00;;
11982;SDS011;72623;51.184;7.176;2024-03-23T14:48:47;5.63;;;1.93;;
11982;SDS011;72623;51.184;7.176;2024-03-23T14:51:13;3.57;;;1.13;;
11982;SDS011;72623;51.184;7.176;2024-03-23T14:53:48;1.73;;;1.10;;
11982;SDS011;72623;51.184;7.176;2024-03-23T14:56:15;1.97;;;1.17;;
11982;SDS011;72623;51.184;7.176;2024-03-23T14:58:52;2.57;;;1.10;;
11982;SDS011;72623;51.184;7.176;2024-03-23T15:01:22;3.13;;;1.30;;
11982;SDS011;72623;51.184;7.176;2024-03-23T15:03:49;2.83;;;1.10;;
11982;SDS011;72623;51.184;7.176;2024-03-23T15:06:18;4.53;;;1.30;;
11982;SDS011;72623;51.184;7.176;2024-03-23T15:08:45;5.13;;;1.10;;
11982;SDS011;72623;51.184;7.176;2024-03-23T15:11:11;3.97;;;1.20;;
11982;SDS011;72623;51.184;7.176;2024-03-23T15:13:38;2.80;;;1.00;;
11982;SDS011;72623;51.184;7.176;2024-03-23T15:16:04;2.43;;;0.97;;
11982;SDS011;72623;51.184;7.176;2024-03-23T15:18:31;2.43;;;0.90;;
11982;SDS011;72623;51.184;7.176;2024-03-23T15:20:58;1.70;;;0.80;;
11982;SDS011;72623;51.184;7.176;2024-03-23T15:23:27;7.43;;;1.10;;
11982;SDS011;72623;51.184;7.176;2024-03-23T15:25:57;1.93;;;0.80;;
11982;SDS011;72623;51.184;7.176;2024-03-23T15:28:25;2.50;;;0.70;;
11982;SDS011;72623;51.184;7.176;2024-03-23T15:30:52;1.10;;;0.70;;
11982;SDS011;72623;51.184;7.176;2024-03-23T15:33:19;1.17;;;0.87;;
11982;SDS011;72623;51.184;7.176;2024-03-23T15:35:44;0.80;;;0.70;;
11982;SDS011;72623;51.184;7.176;2024-03-23T15:38:12;0.80;;;0.73;;
11982;SDS011;72623;51.184;7.176;2024-03-23T15:40:37;1.07;;;0.70;;
11982;SDS011;72623;51.184;7.176;2024-03-23T15:43:10;1.83;;;0.90;;
11982;SDS011;72623;51.184;7.176;2024-03-23T15:45:42;2.90;;;1.33;;
11982;SDS011;72623;51.184;7.176;2024-03-23T15:48:09;8.30;;;1.20;;
11982;SDS011;72623;51.184;7.176;2024-03-23T15:50:35;2.70;;;1.00;;
11982;SDS011;72623;51.184;7.176;2024-03-23T15:53:01;2.97;;;0.97;;
11982;SDS011;72623;51.184;7.176;2024-03-23T15:58:36;2.60;;;1.27;;
11982;SDS011;72623;51.184;7.176;2024-03-23T16:01:02;2.77;;;0.90;;
11982;SDS011;72623;51.184;7.176;2024-03-23T16:03:34;2.67;;;1.10;;
11982;SDS011;72623;51.184;7.176;2024-03-23T16:06:04;2.97;;;1.03;;
11982;SDS011;72623;51.184;7.176;2024-03-23T16:08:35;0.97;;;0.80;;
11982;SDS011;72623;51.184;7.176;2024-03-23T16:11:01;3.73;;;1.00;;
11982;SDS011;72623;51.184;7.176;2024-03-23T16:13:29;4.53;;;1.30;;
11982;SDS011;72623;51.184;7.176;2024-03-23T16:16:02;1.33;;;1.00;;